sensor_id;sensor_type;location;lat;lon;timestamp;temperature;humidity
39347;DHT22;26262;49.836;6.632;2023-04-06T00:01:25;2.10;99.90
39347;DHT22;26262;49.836;6.632;2023-04-06T00:03:51;2.10;99.90
39347;DHT22;26262;49.836;6.632;2023-04-06T00:06:16;2.00;99.90
39347;DHT22;26262;49.836;6.632;2023-04-06T00:08:42;1.90;99.90
39347;DHT22;26262;49.836;6.632;2023-04-06T00:11:08;1.70;99.90
39347;DHT22;26262;49.836;6.632;2023-04-06T00:13:34;1.70;99.90
39347;DHT22;26262;49.836;6.632;2023-04-06T00:16:00;1.70;99.90
39347;DHT22;26262;49.836;6.632;2023-04-06T00:18:26;1.70;99.90
39347;DHT22;26262;49.836;6.632;2023-04-06T00:20:52;1.70;99.90
39347;DHT22;26262;49.836;6.632;2023-04-06T00:23:17;1.70;99.90
39347;DHT22;26262;49.836;6.632;2023-04-06T00:25:43;1.70;99.90
39347;DHT22;26262;49.836;6.632;2023-04-06T00:28:08;1.80;99.90
39347;DHT22;26262;49.836;6.632;2023-04-06T00:30:34;1.80;99.90
39347;DHT22;26262;49.836;6.632;2023-04-06T00:33:00;1.80;99.90
39347;DHT22;26262;49.836;6.632;2023-04-06T00:35:26;1.80;99.90
39347;DHT22;26262;49.836;6.632;2023-04-06T00:37:51;1.50;99.90
39347;DHT22;26262;49.836;6.632;2023-04-06T00:40:17;1.40;99.90
39347;DHT22;26262;49.836;6.632;2023-04-06T00:42:43;1.50;99.90
39347;DHT22;26262;49.836;6.632;2023-04-06T00:45:09;1.50;99.90
39347;DHT22;26262;49.836;6.632;2023-04-06T00:47:35;1.60;99.90
39347;DHT22;26262;49.836;6.632;2023-04-06T00:50:00;1.60;99.90
39347;DHT22;26262;49.836;6.632;2023-04-06T00:52:26;1.50;99.90
39347;DHT22;26262;49.836;6.632;2023-04-06T00:54:52;1.60;99.90
39347;DHT22;26262;49.836;6.632;2023-04-06T00:57:18;1.60;99.90
39347;DHT22;26262;49.836;6.632;2023-04-06T00:59:43;1.30;99.90
39347;DHT22;26262;49.836;6.632;2023-04-06T01:02:09;1.40;99.90
39347;DHT22;26262;49.836;6.632;2023-04-06T01:04:35;1.40;99.90
39347;DHT22;26262;49.836;6.632;2023-04-06T01:07:01;1.40;99.90
39347;DHT22;26262;49.836;6.632;2023-04-06T01:09:30;1.40;99.90
39347;DHT22;26262;49.836;6.632;2023-04-06T01:11:57;1.40;99.90
39347;DHT22;26262;49.836;6.632;2023-04-06T01:14:23;1.40;99.90
39347;DHT22;26262;49.836;6.632;2023-04-06T01:16:48;1.20;99.90
39347;DHT22;26262;49.836;6.632;2023-04-06T01:19:14;1.30;99.90
39347;DHT22;26262;49.836;6.632;2023-04-06T01:21:41;1.10;99.90
39347;DHT22;26262;49.836;6.632;2023-04-06T01:24:07;1.00;99.90
39347;DHT22;26262;49.836;6.632;2023-04-06T01:26:34;1.10;99.90
39347;DHT22;26262;49.836;6.632;2023-04-06T01:29:00;1.20;99.90
39347;DHT22;26262;49.836;6.632;2023-04-06T01:31:25;1.20;99.90
39347;DHT22;26262;49.836;6.632;2023-04-06T01:33:52;1.20;99.90
39347;DHT22;26262;49.836;6.632;2023-04-06T01:36:18;1.20;99.90
39347;DHT22;26262;49.836;6.632;2023-04-06T01:38:44;1.10;99.90
39347;DHT22;26262;49.836;6.632;2023-04-06T01:41:10;1.20;99.90
39347;DHT22;26262;49.836;6.632;2023-04-06T01:43:36;1.20;99.90
39347;DHT22;26262;49.836;6.632;2023-04-06T01:46:01;1.20;99.90
39347;DHT22;26262;49.836;6.632;2023-04-06T01:48:27;1.20;99.90
39347;DHT22;26262;49.836;6.632;2023-04-06T01:50:53;1.20;99.90
39347;DHT22;26262;49.836;6.632;2023-04-06T01:53:19;0.80;99.90
39347;DHT22;26262;49.836;6.632;2023-04-06T01:55:45;0.80;99.90
39347;DHT22;26262;49.836;6.632;2023-04-06T01:58:11;0.80;99.90
39347;DHT22;26262;49.836;6.632;2023-04-06T02:00:37;0.90;99.90
39347;DHT22;26262;49.836;6.632;2023-04-06T02:03:02;1.00;99.90
39347;DHT22;26262;49.836;6.632;2023-04-06T02:05:30;1.00;99.90
39347;DHT22;26262;49.836;6.632;2023-04-06T02:07:56;1.10;99.90
39347;DHT22;26262;49.836;6.632;2023-04-06T02:10:22;1.00;99.90
39347;DHT22;26262;49.836;6.632;2023-04-06T02:12:48;1.00;99.90
39347;DHT22;26262;49.836;6.632;2023-04-06T02:15:14;1.00;99.90
39347;DHT22;26262;49.836;6.632;2023-04-06T02:17:40;1.00;99.90
39347;DHT22;26262;49.836;6.632;2023-04-06T02:20:06;1.00;99.90
39347;DHT22;26262;49.836;6.632;2023-04-06T02:22:32;1.00;99.90
39347;DHT22;26262;49.836;6.632;2023-04-06T02:24:58;1.00;99.90
39347;DHT22;26262;49.836;6.632;2023-04-06T02:27:23;1.00;99.90
39347;DHT22;26262;49.836;6.632;2023-04-06T02:29:49;0.80;99.90
39347;DHT22;26262;49.836;6.632;2023-04-06T02:32:14;0.90;99.90
39347;DHT22;26262;49.836;6.632;2023-04-06T02:34:40;0.90;99.90
39347;DHT22;26262;49.836;6.632;2023-04-06T02:37:05;1.00;99.90
39347;DHT22;26262;49.836;6.632;2023-04-06T02:39:31;0.90;99.90
39347;DHT22;26262;49.836;6.632;2023-04-06T02:41:56;1.00;99.90
39347;DHT22;26262;49.836;6.632;2023-04-06T02:44:22;1.00;99.90
39347;DHT22;26262;49.836;6.632;2023-04-06T02:46:48;1.00;99.90
39347;DHT22;26262;49.836;6.632;2023-04-06T02:49:14;1.00;99.90
39347;DHT22;26262;49.836;6.632;2023-04-06T02:51:39;1.00;99.90
39347;DHT22;26262;49.836;6.632;2023-04-06T02:54:05;0.90;99.90
39347;DHT22;26262;49.836;6.632;2023-04-06T02:56:30;0.80;99.90
39347;DHT22;26262;49.836;6.632;2023-04-06T02:58:56;0.80;99.90
39347;DHT22;26262;49.836;6.632;2023-04-06T03:01:22;0.80;99.90
39347;DHT22;26262;49.836;6.632;2023-04-06T03:03:47;0.90;99.90
39347;DHT22;26262;49.836;6.632;2023-04-06T03:06:13;0.80;99.90
39347;DHT22;26262;49.836;6.632;2023-04-06T03:08:38;0.90;99.90
39347;DHT22;26262;49.836;6.632;2023-04-06T03:11:04;0.80;99.90
39347;DHT22;26262;49.836;6.632;2023-04-06T03:13:30;0.80;99.90
39347;DHT22;26262;49.836;6.632;2023-04-06T03:15:56;0.80;99.90
39347;DHT22;26262;49.836;6.632;2023-04-06T03:18:23;0.80;99.90
39347;DHT22;26262;49.836;6.632;2023-04-06T03:20:49;0.80;99.90
39347;DHT22;26262;49.836;6.632;2023-04-06T03:23:14;0.80;99.90
39347;DHT22;26262;49.836;6.632;2023-04-06T03:25:40;0.80;99.90
39347;DHT22;26262;49.836;6.632;2023-04-06T03:28:06;0.60;99.90
39347;DHT22;26262;49.836;6.632;2023-04-06T03:30:31;0.60;99.90
39347;DHT22;26262;49.836;6.632;2023-04-06T03:32:57;0.70;99.90
39347;DHT22;26262;49.836;6.632;2023-04-06T03:35:22;0.70;99.90
39347;DHT22;26262;49.836;6.632;2023-04-06T03:37:48;0.60;99.90
39347;DHT22;26262;49.836;6.632;2023-04-06T03:40:14;0.40;99.90
39347;DHT22;26262;49.836;6.632;2023-04-06T03:42:39;0.50;99.90
39347;DHT22;26262;49.836;6.632;2023-04-06T03:45:05;0.50;99.90
39347;DHT22;26262;49.836;6.632;2023-04-06T03:47:31;0.50;99.90
39347;DHT22;26262;49.836;6.632;2023-04-06T03:49:56;0.60;99.90
39347;DHT22;26262;49.836;6.632;2023-04-06T03:52:22;0.50;99.90
39347;DHT22;26262;49.836;6.632;2023-04-06T03:54:48;0.50;99.90
39347;DHT22;26262;49.836;6.632;2023-04-06T03:57:14;0.50;99.90
39347;DHT22;26262;49.836;6.632;2023-04-06T03:59:40;0.50;99.90
39347;DHT22;26262;49.836;6.632;2023-04-06T04:02:05;0.50;99.90
39347;DHT22;26262;49.836;6.632;2023-04-06T04:04:31;0.60;99.90
39347;DHT22;26262;49.836;6.632;2023-04-06T04:06:56;0.60;99.90
39347;DHT22;26262;49.836;6.632;2023-04-06T04:09:22;0.60;99.90
39347;DHT22;26262;49.836;6.632;2023-04-06T04:11:48;0.60;99.90
39347;DHT22;26262;49.836;6.632;2023-04-06T04:14:13;0.50;99.90
39347;DHT22;26262;49.836;6.632;2023-04-06T04:16:39;0.50;99.90
39347;DHT22;26262;49.836;6.632;2023-04-06T04:19:06;0.50;99.90
39347;DHT22;26262;49.836;6.632;2023-04-06T04:21:32;0.50;99.90
39347;DHT22;26262;49.836;6.632;2023-04-06T04:23:57;0.40;99.90
39347;DHT22;26262;49.836;6.632;2023-04-06T04:26:23;0.40;99.90
39347;DHT22;26262;49.836;6.632;2023-04-06T04:28:48;0.40;99.90
39347;DHT22;26262;49.836;6.632;2023-04-06T04:31:14;0.40;99.90
39347;DHT22;26262;49.836;6.632;2023-04-06T04:33:40;0.50;99.90
39347;DHT22;26262;49.836;6.632;2023-04-06T04:36:06;0.50;99.90
39347;DHT22;26262;49.836;6.632;2023-04-06T04:38:31;0.40;99.90
39347;DHT22;26262;49.836;6.632;2023-04-06T04:40:57;0.50;99.90
39347;DHT22;26262;49.836;6.632;2023-04-06T04:43:23;0.40;99.90
39347;DHT22;26262;49.836;6.632;2023-04-06T04:45:48;0.50;99.90
39347;DHT22;26262;49.836;6.632;2023-04-06T04:48:14;0.50;99.90
39347;DHT22;26262;49.836;6.632;2023-04-06T04:50:39;0.50;99.90
39347;DHT22;26262;49.836;6.632;2023-04-06T04:53:05;0.50;99.90
39347;DHT22;26262;49.836;6.632;2023-04-06T04:55:31;0.50;99.90
39347;DHT22;26262;49.836;6.632;2023-04-06T04:57:57;0.40;99.90
39347;DHT22;26262;49.836;6.632;2023-04-06T05:00:22;0.50;99.90
39347;DHT22;26262;49.836;6.632;2023-04-06T05:02:48;0.50;99.90
39347;DHT22;26262;49.836;6.632;2023-04-06T05:05:14;0.40;99.90
39347;DHT22;26262;49.836;6.632;2023-04-06T05:07:40;0.50;99.90
39347;DHT22;26262;49.836;6.632;2023-04-06T05:10:06;0.50;99.90
39347;DHT22;26262;49.836;6.632;2023-04-06T05:12:31;0.50;99.90
39347;DHT22;26262;49.836;6.632;2023-04-06T05:14:57;0.60;99.90
39347;DHT22;26262;49.836;6.632;2023-04-06T05:17:23;0.60;99.90
39347;DHT22;26262;49.836;6.632;2023-04-06T05:19:48;0.60;99.90
39347;DHT22;26262;49.836;6.632;2023-04-06T05:22:14;0.70;99.90
39347;DHT22;26262;49.836;6.632;2023-04-06T05:24:43;0.70;99.90
39347;DHT22;26262;49.836;6.632;2023-04-06T05:27:08;0.80;99.90
39347;DHT22;26262;49.836;6.632;2023-04-06T05:29:34;0.80;99.90
39347;DHT22;26262;49.836;6.632;2023-04-06T05:32:01;0.80;99.90
39347;DHT22;26262;49.836;6.632;2023-04-06T05:34:26;0.80;99.90
39347;DHT22;26262;49.836;6.632;2023-04-06T05:36:52;0.90;99.90
39347;DHT22;26262;49.836;6.632;2023-04-06T05:39:18;0.80;99.90
39347;DHT22;26262;49.836;6.632;2023-04-06T05:41:43;0.90;99.90
39347;DHT22;26262;49.836;6.632;2023-04-06T05:44:09;0.90;99.90
39347;DHT22;26262;49.836;6.632;2023-04-06T05:46:35;0.90;99.90
39347;DHT22;26262;49.836;6.632;2023-04-06T05:49:00;0.80;99.90
39347;DHT22;26262;49.836;6.632;2023-04-06T05:51:26;0.90;99.90
39347;DHT22;26262;49.836;6.632;2023-04-06T05:53:52;1.00;99.90
39347;DHT22;26262;49.836;6.632;2023-04-06T05:56:18;1.10;99.90
39347;DHT22;26262;49.836;6.632;2023-04-06T05:58:43;1.00;99.90
39347;DHT22;26262;49.836;6.632;2023-04-06T06:01:09;1.00;99.90
39347;DHT22;26262;49.836;6.632;2023-04-06T06:03:35;0.80;99.90
39347;DHT22;26262;49.836;6.632;2023-04-06T06:06:02;1.00;99.90
39347;DHT22;26262;49.836;6.632;2023-04-06T06:08:28;1.10;99.90
39347;DHT22;26262;49.836;6.632;2023-04-06T06:10:54;1.10;99.90
39347;DHT22;26262;49.836;6.632;2023-04-06T06:13:20;1.30;99.90
39347;DHT22;26262;49.836;6.632;2023-04-06T06:15:46;1.30;99.90
39347;DHT22;26262;49.836;6.632;2023-04-06T06:18:11;1.30;99.90
39347;DHT22;26262;49.836;6.632;2023-04-06T06:20:37;1.20;99.90
39347;DHT22;26262;49.836;6.632;2023-04-06T06:23:03;1.30;99.90
39347;DHT22;26262;49.836;6.632;2023-04-06T06:25:28;1.40;99.90
39347;DHT22;26262;49.836;6.632;2023-04-06T06:27:56;1.50;99.90
39347;DHT22;26262;49.836;6.632;2023-04-06T06:30:22;1.50;99.90
39347;DHT22;26262;49.836;6.632;2023-04-06T06:32:47;1.40;99.90
39347;DHT22;26262;49.836;6.632;2023-04-06T06:35:13;1.30;99.90
39347;DHT22;26262;49.836;6.632;2023-04-06T06:37:39;1.30;99.90
39347;DHT22;26262;49.836;6.632;2023-04-06T06:40:05;1.50;99.90
39347;DHT22;26262;49.836;6.632;2023-04-06T06:42:30;1.60;99.90
39347;DHT22;26262;49.836;6.632;2023-04-06T06:44:56;1.70;99.90
39347;DHT22;26262;49.836;6.632;2023-04-06T06:47:22;1.60;99.90
39347;DHT22;26262;49.836;6.632;2023-04-06T06:49:47;1.60;99.90
39347;DHT22;26262;49.836;6.632;2023-04-06T06:55:16;1.50;99.90
39347;DHT22;26262;49.836;6.632;2023-04-06T06:57:44;1.70;99.90
39347;DHT22;26262;49.836;6.632;2023-04-06T07:00:11;1.70;99.90
39347;DHT22;26262;49.836;6.632;2023-04-06T07:02:38;1.90;99.90
39347;DHT22;26262;49.836;6.632;2023-04-06T07:05:04;2.00;99.90
39347;DHT22;26262;49.836;6.632;2023-04-06T07:07:31;1.90;99.90
39347;DHT22;26262;49.836;6.632;2023-04-06T07:09:57;2.10;99.90
39347;DHT22;26262;49.836;6.632;2023-04-06T07:12:23;2.30;99.90
39347;DHT22;26262;49.836;6.632;2023-04-06T07:14:48;2.50;99.90
39347;DHT22;26262;49.836;6.632;2023-04-06T07:17:14;2.60;99.90
39347;DHT22;26262;49.836;6.632;2023-04-06T07:19:39;2.60;99.90
39347;DHT22;26262;49.836;6.632;2023-04-06T07:22:06;2.70;99.90
39347;DHT22;26262;49.836;6.632;2023-04-06T07:24:31;2.80;99.90
39347;DHT22;26262;49.836;6.632;2023-04-06T07:26:58;2.80;99.90
39347;DHT22;26262;49.836;6.632;2023-04-06T07:29:24;2.90;99.90
39347;DHT22;26262;49.836;6.632;2023-04-06T07:31:49;3.00;99.90
39347;DHT22;26262;49.836;6.632;2023-04-06T07:34:15;3.20;99.90
39347;DHT22;26262;49.836;6.632;2023-04-06T07:36:41;3.30;99.90
39347;DHT22;26262;49.836;6.632;2023-04-06T07:39:07;3.30;99.90
39347;DHT22;26262;49.836;6.632;2023-04-06T07:41:33;3.40;99.90
39347;DHT22;26262;49.836;6.632;2023-04-06T07:43:58;3.50;99.90
39347;DHT22;26262;49.836;6.632;2023-04-06T07:46:24;3.60;99.90
39347;DHT22;26262;49.836;6.632;2023-04-06T07:48:50;3.50;99.90
39347;DHT22;26262;49.836;6.632;2023-04-06T07:51:16;3.50;99.90
39347;DHT22;26262;49.836;6.632;2023-04-06T07:53:45;3.60;99.90
39347;DHT22;26262;49.836;6.632;2023-04-06T07:56:11;3.80;99.90
39347;DHT22;26262;49.836;6.632;2023-04-06T07:58:40;3.90;99.90
39347;DHT22;26262;49.836;6.632;2023-04-06T08:01:06;3.90;99.90
39347;DHT22;26262;49.836;6.632;2023-04-06T08:03:34;3.90;99.90
39347;DHT22;26262;49.836;6.632;2023-04-06T08:06:00;4.00;99.90
39347;DHT22;26262;49.836;6.632;2023-04-06T08:08:26;4.20;99.90
39347;DHT22;26262;49.836;6.632;2023-04-06T08:10:51;4.40;99.90
39347;DHT22;26262;49.836;6.632;2023-04-06T08:13:17;4.60;99.90
39347;DHT22;26262;49.836;6.632;2023-04-06T08:15:43;4.80;99.90
39347;DHT22;26262;49.836;6.632;2023-04-06T08:18:09;5.00;99.90
39347;DHT22;26262;49.836;6.632;2023-04-06T08:20:35;5.10;99.90
39347;DHT22;26262;49.836;6.632;2023-04-06T08:23:00;5.20;99.90
39347;DHT22;26262;49.836;6.632;2023-04-06T08:25:26;5.40;99.90
39347;DHT22;26262;49.836;6.632;2023-04-06T08:27:52;5.70;99.90
39347;DHT22;26262;49.836;6.632;2023-04-06T08:30:18;5.90;99.90
39347;DHT22;26262;49.836;6.632;2023-04-06T08:32:45;6.10;99.90
39347;DHT22;26262;49.836;6.632;2023-04-06T08:35:11;6.40;99.90
39347;DHT22;26262;49.836;6.632;2023-04-06T08:37:37;6.70;99.90
39347;DHT22;26262;49.836;6.632;2023-04-06T08:40:03;6.90;99.90
39347;DHT22;26262;49.836;6.632;2023-04-06T08:42:32;7.10;99.90
39347;DHT22;26262;49.836;6.632;2023-04-06T08:44:59;7.20;99.90
39347;DHT22;26262;49.836;6.632;2023-04-06T08:47:25;7.40;99.90
39347;DHT22;26262;49.836;6.632;2023-04-06T08:49:51;7.50;99.90
39347;DHT22;26262;49.836;6.632;2023-04-06T08:52:18;7.70;99.90
39347;DHT22;26262;49.836;6.632;2023-04-06T08:54:44;7.90;99.90
39347;DHT22;26262;49.836;6.632;2023-04-06T08:57:10;8.10;99.90
39347;DHT22;26262;49.836;6.632;2023-04-06T08:59:36;8.20;99.90
39347;DHT22;26262;49.836;6.632;2023-04-06T09:02:04;8.40;99.90
39347;DHT22;26262;49.836;6.632;2023-04-06T09:04:33;8.50;99.90
39347;DHT22;26262;49.836;6.632;2023-04-06T09:07:00;8.80;99.90
39347;DHT22;26262;49.836;6.632;2023-04-06T09:09:26;9.00;99.90
39347;DHT22;26262;49.836;6.632;2023-04-06T09:11:52;9.20;99.90
39347;DHT22;26262;49.836;6.632;2023-04-06T09:14:36;9.30;99.90
39347;DHT22;26262;49.836;6.632;2023-04-06T09:17:02;9.40;99.90
39347;DHT22;26262;49.836;6.632;2023-04-06T09:19:28;9.60;99.90
39347;DHT22;26262;49.836;6.632;2023-04-06T09:22:06;9.70;99.90
39347;DHT22;26262;49.836;6.632;2023-04-06T09:24:46;9.70;99.90
39347;DHT22;26262;49.836;6.632;2023-04-06T09:27:12;9.80;99.90
39347;DHT22;26262;49.836;6.632;2023-04-06T09:29:37;10.00;99.90
39347;DHT22;26262;49.836;6.632;2023-04-06T09:32:07;10.20;99.90
39347;DHT22;26262;49.836;6.632;2023-04-06T09:34:34;10.30;99.90
39347;DHT22;26262;49.836;6.632;2023-04-06T09:36:59;10.40;99.90
39347;DHT22;26262;49.836;6.632;2023-04-06T09:39:25;10.50;99.90
39347;DHT22;26262;49.836;6.632;2023-04-06T09:41:52;10.60;99.90
39347;DHT22;26262;49.836;6.632;2023-04-06T09:44:19;10.50;98.50
39347;DHT22;26262;49.836;6.632;2023-04-06T09:46:46;10.50;99.00
39347;DHT22;26262;49.836;6.632;2023-04-06T09:49:12;10.70;98.90
39347;DHT22;26262;49.836;6.632;2023-04-06T09:51:39;10.70;97.60
39347;DHT22;26262;49.836;6.632;2023-04-06T09:54:06;10.80;97.80
39347;DHT22;26262;49.836;6.632;2023-04-06T09:56:51;10.90;99.00
39347;DHT22;26262;49.836;6.632;2023-04-06T10:02:33;10.70;97.10
39347;DHT22;26262;49.836;6.632;2023-04-06T10:05:06;10.80;97.50
39347;DHT22;26262;49.836;6.632;2023-04-06T10:07:33;10.90;97.20
39347;DHT22;26262;49.836;6.632;2023-04-06T10:10:02;11.00;98.40
39347;DHT22;26262;49.836;6.632;2023-04-06T10:12:28;11.10;96.80
39347;DHT22;26262;49.836;6.632;2023-04-06T10:14:54;11.00;96.30
39347;DHT22;26262;49.836;6.632;2023-04-06T10:17:21;11.20;97.30
39347;DHT22;26262;49.836;6.632;2023-04-06T10:19:50;11.30;97.50
39347;DHT22;26262;49.836;6.632;2023-04-06T10:22:26;11.50;96.70
39347;DHT22;26262;49.836;6.632;2023-04-06T10:24:55;11.80;96.90
39347;DHT22;26262;49.836;6.632;2023-04-06T10:27:30;12.00;96.50
39347;DHT22;26262;49.836;6.632;2023-04-06T10:30:02;12.10;95.90
39347;DHT22;26262;49.836;6.632;2023-04-06T10:32:38;12.20;95.40
39347;DHT22;26262;49.836;6.632;2023-04-06T10:35:08;12.10;94.80
39347;DHT22;26262;49.836;6.632;2023-04-06T10:38:01;12.30;95.20
39347;DHT22;26262;49.836;6.632;2023-04-06T10:40:27;12.40;96.70
39347;DHT22;26262;49.836;6.632;2023-04-06T10:42:54;12.70;95.40
39347;DHT22;26262;49.836;6.632;2023-04-06T10:45:24;12.30;94.10
39347;DHT22;26262;49.836;6.632;2023-04-06T10:47:52;12.50;95.30
39347;DHT22;26262;49.836;6.632;2023-04-06T10:50:18;12.40;94.30
39347;DHT22;26262;49.836;6.632;2023-04-06T10:52:45;12.60;94.20
39347;DHT22;26262;49.836;6.632;2023-04-06T10:55:13;12.60;94.30
39347;DHT22;26262;49.836;6.632;2023-04-06T10:57:40;12.30;93.60
39347;DHT22;26262;49.836;6.632;2023-04-06T11:00:07;11.90;93.20
39347;DHT22;26262;49.836;6.632;2023-04-06T11:02:36;11.90;95.50
39347;DHT22;26262;49.836;6.632;2023-04-06T11:05:03;11.80;94.10
39347;DHT22;26262;49.836;6.632;2023-04-06T11:07:29;12.00;96.20
39347;DHT22;26262;49.836;6.632;2023-04-06T11:09:56;12.20;94.80
39347;DHT22;26262;49.836;6.632;2023-04-06T11:12:26;12.10;94.80
39347;DHT22;26262;49.836;6.632;2023-04-06T11:15:00;11.80;95.00
39347;DHT22;26262;49.836;6.632;2023-04-06T11:17:28;11.90;94.70
39347;DHT22;26262;49.836;6.632;2023-04-06T11:19:55;11.90;95.00
39347;DHT22;26262;49.836;6.632;2023-04-06T11:22:20;11.80;93.60
39347;DHT22;26262;49.836;6.632;2023-04-06T11:24:46;11.80;94.50
39347;DHT22;26262;49.836;6.632;2023-04-06T11:27:12;11.90;95.20
39347;DHT22;26262;49.836;6.632;2023-04-06T11:29:38;12.00;94.90
39347;DHT22;26262;49.836;6.632;2023-04-06T11:32:06;12.00;94.70
39347;DHT22;26262;49.836;6.632;2023-04-06T11:34:39;12.00;94.80
39347;DHT22;26262;49.836;6.632;2023-04-06T11:37:10;12.10;94.50
39347;DHT22;26262;49.836;6.632;2023-04-06T11:42:06;12.20;95.20
39347;DHT22;26262;49.836;6.632;2023-04-06T11:44:36;12.10;93.50
39347;DHT22;26262;49.836;6.632;2023-04-06T11:47:05;12.10;95.30
39347;DHT22;26262;49.836;6.632;2023-04-06T11:49:32;12.30;94.90
39347;DHT22;26262;49.836;6.632;2023-04-06T11:51:59;12.30;96.30
39347;DHT22;26262;49.836;6.632;2023-04-06T11:54:37;12.00;93.90
39347;DHT22;26262;49.836;6.632;2023-04-06T11:57:04;11.60;94.30
39347;DHT22;26262;49.836;6.632;2023-04-06T11:59:31;11.70;95.90
39347;DHT22;26262;49.836;6.632;2023-04-06T12:01:57;11.80;95.80
39347;DHT22;26262;49.836;6.632;2023-04-06T12:04:23;11.90;95.90
39347;DHT22;26262;49.836;6.632;2023-04-06T12:06:49;12.00;96.60
39347;DHT22;26262;49.836;6.632;2023-04-06T12:09:16;12.10;95.10
39347;DHT22;26262;49.836;6.632;2023-04-06T12:11:42;11.80;96.60
39347;DHT22;26262;49.836;6.632;2023-04-06T12:14:08;11.70;96.30
39347;DHT22;26262;49.836;6.632;2023-04-06T12:16:34;11.60;95.90
39347;DHT22;26262;49.836;6.632;2023-04-06T12:19:00;11.60;95.80
39347;DHT22;26262;49.836;6.632;2023-04-06T12:21:34;11.60;97.20
39347;DHT22;26262;49.836;6.632;2023-04-06T12:24:01;11.60;96.20
39347;DHT22;26262;49.836;6.632;2023-04-06T12:26:27;11.60;97.40
39347;DHT22;26262;49.836;6.632;2023-04-06T12:28:53;11.60;96.50
39347;DHT22;26262;49.836;6.632;2023-04-06T12:31:21;11.80;98.70
39347;DHT22;26262;49.836;6.632;2023-04-06T12:33:47;11.80;96.90
39347;DHT22;26262;49.836;6.632;2023-04-06T12:36:14;11.50;96.80
39347;DHT22;26262;49.836;6.632;2023-04-06T12:38:41;11.50;98.20
39347;DHT22;26262;49.836;6.632;2023-04-06T12:41:07;11.60;97.00
39347;DHT22;26262;49.836;6.632;2023-04-06T12:43:33;11.70;97.90
39347;DHT22;26262;49.836;6.632;2023-04-06T12:45:58;11.60;96.80
39347;DHT22;26262;49.836;6.632;2023-04-06T12:48:25;11.80;98.30
39347;DHT22;26262;49.836;6.632;2023-04-06T12:51:00;11.70;97.00
39347;DHT22;26262;49.836;6.632;2023-04-06T12:53:26;11.50;98.20
39347;DHT22;26262;49.836;6.632;2023-04-06T12:55:53;11.50;99.50
39347;DHT22;26262;49.836;6.632;2023-04-06T12:58:19;11.20;99.30
39347;DHT22;26262;49.836;6.632;2023-04-06T13:00:44;11.20;99.90
39347;DHT22;26262;49.836;6.632;2023-04-06T13:03:10;10.90;99.90
39347;DHT22;26262;49.836;6.632;2023-04-06T13:05:40;10.80;99.90
39347;DHT22;26262;49.836;6.632;2023-04-06T13:08:08;10.70;99.90
39347;DHT22;26262;49.836;6.632;2023-04-06T13:10:34;10.70;99.90
39347;DHT22;26262;49.836;6.632;2023-04-06T13:12:59;10.80;99.90
39347;DHT22;26262;49.836;6.632;2023-04-06T13:15:25;10.80;99.90
39347;DHT22;26262;49.836;6.632;2023-04-06T13:17:51;10.70;99.90
39347;DHT22;26262;49.836;6.632;2023-04-06T13:20:16;10.80;99.90
39347;DHT22;26262;49.836;6.632;2023-04-06T13:22:42;10.60;99.90
39347;DHT22;26262;49.836;6.632;2023-04-06T13:25:08;10.60;99.90
39347;DHT22;26262;49.836;6.632;2023-04-06T13:27:33;10.80;99.90
39347;DHT22;26262;49.836;6.632;2023-04-06T13:30:01;10.90;99.90
39347;DHT22;26262;49.836;6.632;2023-04-06T13:32:26;11.00;99.90
39347;DHT22;26262;49.836;6.632;2023-04-06T13:34:55;11.10;99.90
39347;DHT22;26262;49.836;6.632;2023-04-06T13:37:20;11.30;99.90
39347;DHT22;26262;49.836;6.632;2023-04-06T13:39:46;11.30;99.90
39347;DHT22;26262;49.836;6.632;2023-04-06T13:42:11;11.20;99.90
39347;DHT22;26262;49.836;6.632;2023-04-06T13:44:37;11.30;99.90
39347;DHT22;26262;49.836;6.632;2023-04-06T13:47:02;11.30;99.90
39347;DHT22;26262;49.836;6.632;2023-04-06T13:49:28;11.30;99.90
39347;DHT22;26262;49.836;6.632;2023-04-06T13:51:54;11.30;99.90
39347;DHT22;26262;49.836;6.632;2023-04-06T13:54:19;11.30;99.90
39347;DHT22;26262;49.836;6.632;2023-04-06T13:56:45;11.20;99.90
39347;DHT22;26262;49.836;6.632;2023-04-06T13:59:10;10.90;99.90
39347;DHT22;26262;49.836;6.632;2023-04-06T14:01:37;10.40;99.90
39347;DHT22;26262;49.836;6.632;2023-04-06T14:04:02;10.30;99.90
39347;DHT22;26262;49.836;6.632;2023-04-06T14:06:28;10.20;99.90
39347;DHT22;26262;49.836;6.632;2023-04-06T14:08:53;10.40;99.90
39347;DHT22;26262;49.836;6.632;2023-04-06T14:11:19;10.50;99.90
39347;DHT22;26262;49.836;6.632;2023-04-06T14:13:44;10.60;99.90
39347;DHT22;26262;49.836;6.632;2023-04-06T14:16:10;10.50;99.90
39347;DHT22;26262;49.836;6.632;2023-04-06T14:18:36;10.30;99.90
39347;DHT22;26262;49.836;6.632;2023-04-06T14:21:02;10.30;99.90
39347;DHT22;26262;49.836;6.632;2023-04-06T14:23:28;10.20;99.90
39347;DHT22;26262;49.836;6.632;2023-04-06T14:26:04;10.30;99.90
39347;DHT22;26262;49.836;6.632;2023-04-06T14:28:31;10.30;99.90
39347;DHT22;26262;49.836;6.632;2023-04-06T14:30:58;9.90;99.90
39347;DHT22;26262;49.836;6.632;2023-04-06T14:33:23;10.00;99.90
39347;DHT22;26262;49.836;6.632;2023-04-06T14:35:49;10.10;99.90
39347;DHT22;26262;49.836;6.632;2023-04-06T14:38:14;9.70;99.90
39347;DHT22;26262;49.836;6.632;2023-04-06T14:40:40;9.80;99.90
39347;DHT22;26262;49.836;6.632;2023-04-06T14:43:06;9.70;99.90
39347;DHT22;26262;49.836;6.632;2023-04-06T14:45:33;9.60;99.90
39347;DHT22;26262;49.836;6.632;2023-04-06T14:47:59;9.40;99.90
39347;DHT22;26262;49.836;6.632;2023-04-06T14:50:25;9.50;99.90
39347;DHT22;26262;49.836;6.632;2023-04-06T14:52:50;9.50;99.90
39347;DHT22;26262;49.836;6.632;2023-04-06T14:55:16;9.50;99.90
39347;DHT22;26262;49.836;6.632;2023-04-06T14:57:42;9.50;99.90
39347;DHT22;26262;49.836;6.632;2023-04-06T15:00:08;9.60;99.90
39347;DHT22;26262;49.836;6.632;2023-04-06T15:02:34;9.40;99.90
39347;DHT22;26262;49.836;6.632;2023-04-06T15:05:00;9.50;99.90
39347;DHT22;26262;49.836;6.632;2023-04-06T15:07:25;9.50;99.90
39347;DHT22;26262;49.836;6.632;2023-04-06T15:09:51;9.60;99.90
39347;DHT22;26262;49.836;6.632;2023-04-06T15:12:16;9.80;99.90
39347;DHT22;26262;49.836;6.632;2023-04-06T15:14:42;9.60;99.90
39347;DHT22;26262;49.836;6.632;2023-04-06T15:17:08;9.60;99.90
39347;DHT22;26262;49.836;6.632;2023-04-06T15:19:33;9.50;99.90
39347;DHT22;26262;49.836;6.632;2023-04-06T15:21:59;9.60;99.90
39347;DHT22;26262;49.836;6.632;2023-04-06T15:24:24;9.50;99.90
39347;DHT22;26262;49.836;6.632;2023-04-06T15:26:50;9.30;99.90
39347;DHT22;26262;49.836;6.632;2023-04-06T15:29:16;9.30;99.90
39347;DHT22;26262;49.836;6.632;2023-04-06T15:31:41;9.40;99.90
39347;DHT22;26262;49.836;6.632;2023-04-06T15:34:07;9.30;99.90
39347;DHT22;26262;49.836;6.632;2023-04-06T15:36:35;9.20;99.90
39347;DHT22;26262;49.836;6.632;2023-04-06T15:39:02;9.30;99.90
39347;DHT22;26262;49.836;6.632;2023-04-06T15:41:28;9.40;99.90
39347;DHT22;26262;49.836;6.632;2023-04-06T15:43:54;9.40;99.90
39347;DHT22;26262;49.836;6.632;2023-04-06T15:46:20;9.50;99.90